createdAt,value
2023-01-30T00:00:12.315Z,1.90
2023-01-30T00:02:38.971Z,1.70
2023-01-30T00:05:05.644Z,1.80
2023-01-30T00:07:32.314Z,1.90
2023-01-30T00:09:58.939Z,2.00
2023-01-30T00:12:25.593Z,1.80
2023-01-30T00:14:52.227Z,1.40
2023-01-30T00:17:18.808Z,1.50
2023-01-30T00:19:45.423Z,1.60
2023-01-30T00:22:12.040Z,1.70
2023-01-30T00:24:38.755Z,1.70
2023-01-30T00:27:05.593Z,1.70
2023-01-30T00:29:32.249Z,1.60
2023-01-30T00:31:58.888Z,1.70
2023-01-30T00:34:25.545Z,1.60
2023-01-30T00:37:07.127Z,1.50
2023-01-30T00:39:34.584Z,1.50
2023-01-30T00:42:01.226Z,1.60
2023-01-30T00:44:27.857Z,1.40
2023-01-30T00:46:54.452Z,1.30
2023-01-30T00:49:21.061Z,1.10
2023-01-30T00:51:48.083Z,0.90
2023-01-30T00:54:14.709Z,0.90
2023-01-30T00:56:41.336Z,1.00
2023-01-30T00:59:07.979Z,1.10
2023-01-30T01:01:34.694Z,1.30
2023-01-30T01:04:01.424Z,1.40
2023-01-30T01:06:28.012Z,1.50
2023-01-30T01:08:54.606Z,1.40
2023-01-30T01:11:21.220Z,1.30
2023-01-30T01:13:47.953Z,1.30
2023-01-30T01:16:14.591Z,1.30
2023-01-30T01:18:41.237Z,1.30
2023-01-30T01:21:07.888Z,1.30
2023-01-30T01:23:34.518Z,1.30
2023-01-30T01:26:01.136Z,1.10
2023-01-30T01:28:27.786Z,1.10
2023-01-30T01:30:54.424Z,1.10
2023-01-30T01:33:21.053Z,1.00
2023-01-30T01:35:47.743Z,0.90
2023-01-30T01:38:14.376Z,0.90
2023-01-30T01:40:41.009Z,1.00
2023-01-30T01:43:07.643Z,0.70
2023-01-30T01:45:34.376Z,0.70
2023-01-30T01:48:01.019Z,0.90
2023-01-30T01:50:27.601Z,1.00
2023-01-30T01:52:54.195Z,1.00
2023-01-30T01:55:20.910Z,1.00
2023-01-30T01:57:47.543Z,0.90
2023-01-30T02:00:14.149Z,0.80
2023-01-30T02:02:40.772Z,0.80
2023-01-30T02:05:07.408Z,0.80
2023-01-30T02:07:34.058Z,0.90
2023-01-30T02:10:00.636Z,1.00
2023-01-30T02:12:27.247Z,0.90
2023-01-30T02:14:55.993Z,0.90
2023-01-30T02:17:22.657Z,0.90
2023-01-30T02:19:49.276Z,0.80
2023-01-30T02:22:16.734Z,0.70
2023-01-30T02:24:43.338Z,0.70
2023-01-30T02:27:09.903Z,0.20
2023-01-30T02:29:36.565Z,0.00
2023-01-30T02:32:03.249Z,0.10
2023-01-30T02:34:29.835Z,0.10
2023-01-30T02:36:56.612Z,-0.20
2023-01-30T02:39:23.216Z,-0.10
2023-01-30T02:41:49.887Z,0.00
2023-01-30T02:44:16.471Z,0.00
2023-01-30T02:46:43.066Z,-0.10
2023-01-30T02:49:09.661Z,0.00
2023-01-30T02:51:36.303Z,-0.10
2023-01-30T02:54:02.892Z,-0.30
2023-01-30T02:56:29.511Z,-0.20
2023-01-30T02:58:56.125Z,-0.30
2023-01-30T03:01:22.863Z,-0.10
2023-01-30T03:03:49.551Z,-0.10
2023-01-30T03:06:16.273Z,-0.10
2023-01-30T03:08:42.911Z,-0.50
2023-01-30T03:11:09.478Z,-0.70
2023-01-30T03:13:36.302Z,-0.50
2023-01-30T03:16:02.997Z,-0.60
2023-01-30T03:18:29.689Z,-0.70
2023-01-30T03:20:56.534Z,-0.50
2023-01-30T03:23:23.178Z,-0.30
2023-01-30T03:25:49.788Z,-0.10
2023-01-30T03:28:16.387Z,0.00
2023-01-30T03:30:43.044Z,0.10
2023-01-30T03:33:09.654Z,0.00
2023-01-30T03:35:36.273Z,-0.40
2023-01-30T03:38:02.885Z,-0.70
2023-01-30T03:40:29.532Z,-0.60
2023-01-30T03:42:56.200Z,-0.40
2023-01-30T03:45:22.832Z,-0.60
2023-01-30T03:47:49.467Z,-0.80
2023-01-30T03:50:16.119Z,-1.00
2023-01-30T03:52:42.722Z,-1.10
2023-01-30T03:55:09.384Z,-1.10
2023-01-30T03:57:36.396Z,-1.10
2023-01-30T04:00:03.072Z,-1.10
2023-01-30T04:02:29.793Z,-0.80
2023-01-30T04:04:56.463Z,-0.70
2023-01-30T04:07:23.118Z,-0.60
2023-01-30T04:09:49.724Z,-1.10
2023-01-30T04:12:16.383Z,-1.10
2023-01-30T04:14:42.991Z,-1.00
2023-01-30T04:17:09.618Z,-0.60
2023-01-30T04:19:36.252Z,-0.40
2023-01-30T04:22:02.897Z,-0.60
2023-01-30T04:24:29.583Z,-0.60
2023-01-30T04:26:56.240Z,-0.50
2023-01-30T04:29:22.821Z,-1.00
2023-01-30T04:31:49.534Z,-0.90
2023-01-30T04:34:16.227Z,-0.60
2023-01-30T04:36:42.851Z,-1.00
2023-01-30T04:39:09.462Z,-0.90
2023-01-30T04:41:36.044Z,-0.90
2023-01-30T04:44:02.634Z,-1.00
2023-01-30T04:46:29.269Z,-1.30
2023-01-30T04:48:55.870Z,-1.30
2023-01-30T04:51:22.493Z,-1.50
2023-01-30T04:53:49.097Z,-1.20
2023-01-30T04:56:15.727Z,-1.00
2023-01-30T04:58:42.363Z,-0.80
2023-01-30T05:01:09.065Z,-0.60
2023-01-30T05:03:35.682Z,-0.60
2023-01-30T05:06:02.332Z,-0.50
2023-01-30T05:08:28.982Z,-0.60
2023-01-30T05:10:55.632Z,-1.00
2023-01-30T05:13:22.294Z,-1.30
2023-01-30T05:15:48.939Z,-1.30
2023-01-30T05:18:15.583Z,-1.30
2023-01-30T05:20:42.249Z,-1.30
2023-01-30T05:23:08.840Z,-1.10
2023-01-30T05:25:35.474Z,-0.80
2023-01-30T05:28:02.088Z,-0.70
2023-01-30T05:30:28.880Z,-1.20
2023-01-30T05:32:55.501Z,-1.00
2023-01-30T05:35:22.105Z,-1.30
2023-01-30T05:37:48.694Z,-1.20
2023-01-30T05:40:15.307Z,-0.90
2023-01-30T05:42:42.046Z,-0.80
2023-01-30T05:45:08.676Z,-0.80
2023-01-30T05:47:35.294Z,-0.70
2023-01-30T05:50:01.941Z,-0.70
2023-01-30T05:52:28.600Z,-0.80
2023-01-30T05:54:55.234Z,-1.00
2023-01-30T05:57:21.843Z,-0.90
2023-01-30T05:59:48.425Z,-1.10
2023-01-30T06:02:15.064Z,-1.10
2023-01-30T06:04:41.713Z,-0.90
2023-01-30T06:07:08.777Z,-0.70
2023-01-30T06:09:35.372Z,-1.00
2023-01-30T06:12:01.953Z,-1.10
2023-01-30T06:14:28.545Z,-1.20
2023-01-30T06:16:55.259Z,-0.90
2023-01-30T06:19:21.920Z,-0.60
2023-01-30T06:21:48.534Z,-0.60
2023-01-30T06:24:15.149Z,-1.10
2023-01-30T06:26:41.784Z,-0.90
2023-01-30T06:29:08.432Z,-1.10
2023-01-30T06:31:35.099Z,-0.90
2023-01-30T06:34:01.723Z,-0.90
2023-01-30T06:36:28.321Z,-1.20
2023-01-30T06:38:54.982Z,-1.20
2023-01-30T06:41:21.566Z,-0.90
2023-01-30T06:43:48.082Z,-0.70
2023-01-30T06:46:14.924Z,-0.80
2023-01-30T06:48:41.628Z,-0.80
2023-01-30T06:51:08.335Z,-0.70
2023-01-30T06:53:34.957Z,-1.00
2023-01-30T06:56:01.613Z,-0.90
2023-01-30T06:58:28.251Z,-1.50
2023-01-30T07:00:54.841Z,-1.00
2023-01-30T07:03:21.490Z,-0.60
2023-01-30T07:05:48.075Z,-0.80
2023-01-30T07:08:14.729Z,-0.50
2023-01-30T07:10:41.395Z,-0.80
2023-01-30T07:13:08.035Z,-0.60
2023-01-30T07:15:34.669Z,-0.50
2023-01-30T07:18:01.308Z,-0.70
2023-01-30T07:20:27.961Z,-0.30
2023-01-30T07:22:54.595Z,-0.30
2023-01-30T07:25:21.295Z,-0.30
2023-01-30T07:27:47.887Z,-0.30
2023-01-30T07:30:14.543Z,-0.30
2023-01-30T07:32:41.326Z,-0.30
2023-01-30T07:35:07.928Z,0.00
2023-01-30T07:37:34.582Z,0.20
2023-01-30T07:40:01.262Z,0.20
2023-01-30T07:42:27.859Z,0.40
2023-01-30T07:44:54.484Z,0.40
2023-01-30T07:47:21.167Z,0.40
2023-01-30T07:49:47.769Z,0.40
2023-01-30T07:52:14.419Z,0.10
2023-01-30T07:54:41.246Z,0.20
2023-01-30T07:57:07.895Z,0.50
2023-01-30T07:59:34.499Z,0.70
2023-01-30T08:02:01.179Z,0.30
2023-01-30T08:04:27.844Z,0.60
2023-01-30T08:06:54.611Z,0.90
2023-01-30T08:09:21.213Z,1.10
2023-01-30T08:11:47.849Z,0.40
2023-01-30T08:14:14.495Z,0.50
2023-01-30T08:16:41.213Z,0.60
2023-01-30T08:19:07.858Z,0.50
2023-01-30T08:21:34.453Z,0.50
2023-01-30T08:24:01.476Z,0.90
2023-01-30T08:26:28.297Z,1.20
2023-01-30T08:28:54.926Z,1.30
2023-01-30T08:31:21.556Z,1.20
2023-01-30T08:33:48.182Z,1.50
2023-01-30T08:36:14.803Z,1.70
2023-01-30T08:38:41.442Z,1.80
2023-01-30T08:41:08.094Z,1.60
2023-01-30T08:43:34.757Z,1.80
2023-01-30T08:46:01.392Z,1.70
2023-01-30T08:48:29.879Z,1.60
2023-01-30T08:50:58.640Z,1.50
2023-01-30T08:53:25.287Z,2.10
2023-01-30T08:55:51.965Z,2.40
2023-01-30T08:58:18.631Z,2.70
2023-01-30T09:00:46.152Z,2.50
2023-01-30T09:03:14.319Z,2.60
2023-01-30T09:05:40.974Z,2.60
2023-01-30T09:08:07.625Z,2.80
2023-01-30T09:10:34.359Z,2.90
2023-01-30T09:13:00.948Z,3.00
2023-01-30T09:15:27.575Z,3.10
2023-01-30T09:17:54.218Z,3.40
2023-01-30T09:20:21.117Z,3.40
2023-01-30T09:22:47.751Z,3.30
2023-01-30T09:25:14.413Z,3.70
2023-01-30T09:27:41.100Z,3.80
2023-01-30T09:30:07.686Z,3.40
2023-01-30T09:32:34.320Z,3.50
2023-01-30T09:35:00.952Z,3.70
2023-01-30T09:37:27.612Z,3.30
2023-01-30T09:39:54.230Z,3.50
2023-01-30T09:42:20.889Z,3.50
2023-01-30T09:44:47.489Z,3.40
2023-01-30T09:47:14.056Z,3.80
2023-01-30T09:49:40.842Z,3.80
2023-01-30T09:52:07.505Z,4.00
2023-01-30T09:54:34.154Z,3.80
2023-01-30T09:57:00.804Z,4.10
2023-01-30T09:59:27.452Z,4.60
2023-01-30T10:01:54.083Z,4.50
2023-01-30T10:04:20.680Z,4.60
2023-01-30T10:06:47.348Z,5.00
2023-01-30T10:09:13.927Z,5.20
2023-01-30T10:11:40.543Z,5.30
2023-01-30T10:14:07.118Z,5.50
2023-01-30T10:16:33.756Z,5.30
2023-01-30T10:19:00.369Z,5.50
2023-01-30T10:21:26.980Z,5.40
2023-01-30T10:23:53.609Z,5.20
2023-01-30T10:26:20.324Z,4.80
2023-01-30T10:28:55.403Z,4.40
2023-01-30T10:31:25.434Z,4.20
2023-01-30T10:33:52.089Z,4.40
2023-01-30T10:36:18.689Z,4.20
2023-01-30T10:38:45.286Z,4.30
2023-01-30T10:41:11.866Z,4.40
2023-01-30T10:43:38.493Z,4.20
2023-01-30T10:46:05.093Z,4.40
2023-01-30T10:48:43.871Z,4.10
2023-01-30T10:51:12.429Z,4.20
2023-01-30T10:53:39.025Z,4.70
2023-01-30T10:56:05.619Z,4.60
2023-01-30T10:58:32.379Z,4.80
2023-01-30T11:00:59.020Z,5.00
2023-01-30T11:03:25.620Z,5.20
2023-01-30T11:05:52.195Z,5.60
2023-01-30T11:08:18.837Z,5.40
2023-01-30T11:10:45.469Z,5.10
2023-01-30T11:13:12.136Z,5.10
2023-01-30T11:15:38.798Z,5.60
2023-01-30T11:18:33.488Z,5.90
2023-01-30T11:20:51.987Z,5.80
2023-01-30T11:23:18.579Z,6.00
2023-01-30T11:25:45.196Z,6.20
2023-01-30T11:28:11.757Z,6.10
2023-01-30T11:30:38.434Z,6.50
2023-01-30T11:33:05.018Z,5.90
2023-01-30T11:35:31.609Z,5.70
2023-01-30T11:37:58.210Z,5.70
2023-01-30T11:40:24.836Z,5.90
2023-01-30T11:42:51.557Z,6.50
2023-01-30T11:45:18.649Z,6.70
2023-01-30T11:47:50.742Z,6.20
2023-01-30T11:50:25.818Z,6.20
2023-01-30T11:52:55.352Z,6.20
2023-01-30T11:55:21.964Z,6.50
2023-01-30T11:57:48.556Z,6.50
2023-01-30T12:00:15.225Z,6.60
2023-01-30T12:02:41.850Z,6.90
2023-01-30T12:05:08.566Z,7.10
2023-01-30T12:07:35.279Z,7.20
2023-01-30T12:10:01.952Z,6.70
2023-01-30T12:12:28.625Z,6.70
2023-01-30T12:14:55.282Z,7.10
2023-01-30T12:17:21.896Z,6.80
2023-01-30T12:19:48.586Z,6.80
2023-01-30T12:22:15.195Z,7.30
2023-01-30T12:24:41.820Z,7.00
2023-01-30T12:27:08.593Z,7.30
2023-01-30T12:29:35.383Z,7.70
2023-01-30T12:32:01.974Z,7.70
2023-01-30T12:34:28.549Z,8.20
2023-01-30T12:36:55.197Z,8.30
2023-01-30T12:39:21.778Z,8.20
2023-01-30T12:41:48.370Z,7.80
2023-01-30T12:44:14.952Z,7.50
2023-01-30T12:46:41.549Z,6.90
2023-01-30T12:49:11.331Z,7.50
2023-01-30T12:51:38.377Z,7.40
2023-01-30T12:54:05.042Z,7.30
2023-01-30T12:56:31.662Z,7.60
2023-01-30T12:58:58.370Z,8.00
2023-01-30T13:01:25.133Z,7.80
2023-01-30T13:03:51.907Z,8.10
2023-01-30T13:06:18.565Z,8.50
2023-01-30T13:08:45.239Z,8.10
2023-01-30T13:11:11.987Z,7.80
2023-01-30T13:13:38.602Z,8.00
2023-01-30T13:16:05.355Z,8.10
2023-01-30T13:18:32.106Z,8.40
2023-01-30T13:21:00.427Z,7.90
2023-01-30T13:23:27.249Z,8.10
2023-01-30T13:25:53.851Z,7.70
2023-01-30T13:28:20.560Z,7.70
2023-01-30T13:30:47.217Z,7.60
2023-01-30T13:33:13.889Z,7.80
2023-01-30T13:35:40.600Z,7.50
2023-01-30T13:38:07.319Z,7.70
2023-01-30T13:40:33.997Z,8.00
2023-01-30T13:43:00.686Z,7.70
2023-01-30T13:45:27.291Z,7.70
2023-01-30T13:47:53.930Z,7.60
2023-01-30T13:50:20.933Z,7.30
2023-01-30T13:52:47.696Z,7.20
2023-01-30T13:55:14.383Z,7.50
2023-01-30T13:57:41.059Z,7.30
2023-01-30T14:00:07.693Z,7.30
2023-01-30T14:02:34.325Z,7.50
2023-01-30T14:05:00.974Z,8.20
2023-01-30T14:07:27.635Z,8.10
2023-01-30T14:09:54.279Z,7.90
2023-01-30T14:12:20.928Z,7.60
2023-01-30T14:14:47.604Z,7.70
2023-01-30T14:17:14.281Z,7.80
2023-01-30T14:19:40.962Z,7.90
2023-01-30T14:22:07.632Z,8.20
2023-01-30T14:24:34.247Z,8.30
2023-01-30T14:27:00.948Z,8.40
2023-01-30T14:29:27.619Z,8.60
2023-01-30T14:31:54.476Z,8.40
2023-01-30T14:34:21.274Z,8.30
2023-01-30T14:36:48.980Z,7.90
2023-01-30T14:39:15.669Z,7.80
2023-01-30T14:41:42.287Z,7.60
2023-01-30T14:44:08.924Z,7.70
2023-01-30T14:46:35.598Z,8.00
2023-01-30T14:49:02.336Z,8.20
2023-01-30T14:51:29.028Z,7.60
2023-01-30T14:53:55.703Z,7.00
2023-01-30T14:56:22.398Z,7.00
2023-01-30T14:58:49.054Z,7.10
2023-01-30T15:01:15.772Z,6.90
2023-01-30T15:03:42.467Z,6.90
2023-01-30T15:06:09.118Z,7.20
2023-01-30T15:08:35.801Z,7.40
2023-01-30T15:11:02.474Z,7.20
2023-01-30T15:13:29.153Z,7.20
2023-01-30T15:15:55.848Z,7.40
2023-01-30T15:18:22.544Z,7.50
2023-01-30T15:20:49.207Z,7.50
2023-01-30T15:23:15.882Z,7.70
2023-01-30T15:25:42.724Z,7.80
2023-01-30T15:28:09.370Z,7.70
2023-01-30T15:30:36.100Z,7.60
2023-01-30T15:33:02.756Z,6.80
2023-01-30T15:35:29.422Z,6.80
2023-01-30T15:37:56.058Z,6.70
2023-01-30T15:40:22.993Z,6.60
2023-01-30T15:42:49.822Z,6.40
2023-01-30T15:45:16.487Z,6.60
2023-01-30T15:47:43.152Z,6.00
2023-01-30T15:50:09.837Z,6.50
2023-01-30T15:52:36.484Z,6.30
2023-01-30T15:55:03.151Z,6.40
2023-01-30T15:57:29.858Z,6.40
2023-01-30T15:59:56.564Z,6.60
2023-01-30T16:02:23.283Z,5.90
2023-01-30T16:04:49.890Z,6.10
2023-01-30T16:07:16.646Z,5.70
2023-01-30T16:09:49.634Z,6.20
2023-01-30T16:12:21.876Z,6.00
2023-01-30T16:14:48.575Z,6.20
2023-01-30T16:17:15.235Z,6.40
2023-01-30T16:19:41.869Z,6.60
2023-01-30T16:22:08.544Z,6.80
2023-01-30T16:24:35.173Z,6.60
2023-01-30T16:27:01.837Z,5.80
2023-01-30T16:29:28.441Z,6.00
2023-01-30T16:31:55.208Z,6.30
2023-01-30T16:34:21.879Z,6.40
2023-01-30T16:36:48.514Z,6.50
2023-01-30T16:39:15.230Z,6.40
2023-01-30T16:41:41.873Z,6.30
2023-01-30T16:44:08.570Z,6.30
2023-01-30T16:46:35.235Z,5.50
2023-01-30T16:49:01.904Z,5.50
2023-01-30T16:51:28.580Z,5.70
2023-01-30T16:53:55.272Z,5.00
2023-01-30T16:56:21.907Z,5.20
2023-01-30T16:58:48.601Z,5.40
2023-01-30T17:01:15.386Z,5.50
2023-01-30T17:03:42.109Z,5.70
2023-01-30T17:06:08.812Z,5.50
2023-01-30T17:08:35.485Z,5.30
2023-01-30T17:11:02.089Z,5.40
2023-01-30T17:13:28.733Z,5.40
2023-01-30T17:15:55.432Z,5.40
2023-01-30T17:18:22.098Z,5.40
2023-01-30T17:20:48.722Z,5.50
2023-01-30T17:23:15.518Z,5.40
2023-01-30T17:25:42.212Z,5.10
2023-01-30T17:28:08.893Z,4.80
2023-01-30T17:30:35.493Z,3.90
2023-01-30T17:33:02.253Z,4.00
2023-01-30T17:35:28.921Z,3.90
2023-01-30T17:38:04.798Z,3.90
2023-01-30T17:40:32.135Z,4.00
2023-01-30T17:42:58.756Z,3.70
2023-01-30T17:45:25.403Z,4.50
2023-01-30T17:47:52.093Z,5.20
2023-01-30T17:50:19.127Z,5.50
2023-01-30T17:52:45.919Z,5.70
2023-01-30T17:55:12.623Z,5.90
2023-01-30T17:57:39.294Z,5.90
2023-01-30T18:00:05.981Z,5.90
2023-01-30T18:02:32.811Z,6.20
2023-01-30T18:04:59.653Z,6.10
2023-01-30T18:07:26.329Z,5.90
2023-01-30T18:09:52.941Z,5.80
2023-01-30T18:12:19.604Z,6.00
2023-01-30T18:14:46.198Z,6.00
2023-01-30T18:17:12.895Z,6.20
2023-01-30T18:19:39.516Z,6.10
2023-01-30T18:22:06.200Z,6.00
2023-01-30T18:24:32.854Z,6.00
2023-01-30T18:27:01.747Z,6.00
2023-01-30T18:29:28.589Z,6.00
2023-01-30T18:31:55.269Z,6.10
2023-01-30T18:34:22.089Z,6.00
2023-01-30T18:36:48.722Z,6.00
2023-01-30T18:39:15.402Z,6.00
2023-01-30T18:41:42.086Z,6.10
2023-01-30T18:44:08.731Z,5.90
2023-01-30T18:46:35.351Z,5.90
2023-01-30T18:49:01.973Z,5.60
2023-01-30T18:51:28.646Z,5.70
2023-01-30T18:53:55.378Z,5.90
2023-01-30T18:56:22.111Z,6.00
2023-01-30T18:58:48.748Z,6.00
2023-01-30T19:01:15.464Z,6.00
2023-01-30T19:03:42.140Z,6.10
2023-01-30T19:06:10.629Z,6.10
2023-01-30T19:08:38.113Z,6.00
2023-01-30T19:11:04.709Z,5.90
2023-01-30T19:13:31.395Z,5.70
2023-01-30T19:15:58.474Z,5.90
2023-01-30T19:18:25.179Z,5.70
2023-01-30T19:20:54.157Z,5.60
2023-01-30T19:23:21.198Z,5.80
2023-01-30T19:25:47.796Z,5.80
2023-01-30T19:28:14.502Z,6.00
2023-01-30T19:30:41.239Z,5.70
2023-01-30T19:33:07.962Z,5.70
2023-01-30T19:35:34.720Z,5.50
2023-01-30T19:38:01.440Z,5.50
2023-01-30T19:40:28.122Z,5.40
2023-01-30T19:42:59.629Z,5.40
2023-01-30T19:45:32.331Z,5.10
2023-01-30T19:47:58.969Z,5.00
2023-01-30T19:50:25.698Z,4.70
2023-01-30T19:52:52.457Z,4.60
2023-01-30T19:55:19.714Z,4.50
2023-01-30T19:57:46.359Z,4.50
2023-01-30T20:00:13.101Z,4.40
2023-01-30T20:02:39.771Z,4.50
2023-01-30T20:05:06.470Z,4.70
2023-01-30T20:07:33.150Z,4.60
2023-01-30T20:09:59.800Z,4.70
2023-01-30T20:12:26.451Z,4.70
2023-01-30T20:14:53.157Z,4.60
2023-01-30T20:17:19.781Z,4.70
2023-01-30T20:19:46.463Z,4.70
2023-01-30T20:22:13.163Z,4.80
2023-01-30T20:24:39.772Z,4.90
2023-01-30T20:27:06.425Z,4.70
2023-01-30T20:29:33.100Z,4.80
2023-01-30T20:31:59.796Z,4.80
2023-01-30T20:34:26.486Z,4.80
2023-01-30T20:36:53.107Z,4.60
2023-01-30T20:39:19.759Z,4.80
2023-01-30T20:41:46.428Z,4.80
2023-01-30T20:44:13.060Z,4.80
2023-01-30T20:46:39.859Z,4.80
2023-01-30T20:49:06.526Z,4.80
2023-01-30T20:51:33.207Z,5.00
2023-01-30T20:53:59.838Z,5.00
2023-01-30T20:56:26.516Z,5.20
2023-01-30T20:58:53.161Z,5.10
2023-01-30T21:01:19.916Z,4.90
2023-01-30T21:03:46.533Z,4.90
2023-01-30T21:06:13.222Z,4.70
2023-01-30T21:08:39.841Z,4.80
2023-01-30T21:11:06.499Z,4.70
2023-01-30T21:13:33.203Z,4.70
2023-01-30T21:16:00.375Z,4.90
2023-01-30T21:18:27.127Z,4.50
2023-01-30T21:20:53.809Z,4.40
2023-01-30T21:23:20.437Z,4.50
2023-01-30T21:25:47.071Z,4.50
2023-01-30T21:28:13.696Z,4.50
2023-01-30T21:30:40.494Z,4.50
2023-01-30T21:33:07.238Z,4.50
2023-01-30T21:35:33.949Z,4.30
2023-01-30T21:38:00.556Z,4.30
2023-01-30T21:40:27.242Z,4.30
2023-01-30T21:42:53.902Z,4.60
2023-01-30T21:45:21.131Z,4.60
2023-01-30T21:47:48.156Z,4.70
2023-01-30T21:50:14.759Z,4.80
2023-01-30T21:52:41.386Z,4.60
2023-01-30T21:55:08.012Z,4.80
2023-01-30T21:57:34.647Z,5.00
2023-01-30T22:00:01.288Z,4.70
2023-01-30T22:02:27.894Z,4.90
2023-01-30T22:04:54.885Z,4.90
2023-01-30T22:07:21.553Z,5.10
2023-01-30T22:09:48.191Z,5.20
2023-01-30T22:12:14.852Z,5.10
2023-01-30T22:14:41.502Z,5.10
2023-01-30T22:17:08.168Z,5.00
2023-01-30T22:19:34.936Z,5.00
2023-01-30T22:22:01.653Z,4.80
2023-01-30T22:24:28.334Z,4.90
2023-01-30T22:26:54.995Z,4.70
2023-01-30T22:29:21.686Z,4.40
2023-01-30T22:31:48.363Z,4.10
2023-01-30T22:34:15.012Z,4.10
2023-01-30T22:36:41.680Z,4.50
2023-01-30T22:39:08.364Z,4.30
2023-01-30T22:41:35.015Z,4.40
2023-01-30T22:44:01.677Z,4.30
2023-01-30T22:46:28.297Z,4.40
2023-01-30T22:48:54.952Z,4.70
2023-01-30T22:51:21.612Z,4.60
2023-01-30T22:53:48.800Z,4.30
2023-01-30T22:56:15.498Z,4.50
2023-01-30T22:58:42.167Z,4.60
2023-01-30T23:01:08.929Z,4.40
2023-01-30T23:03:35.897Z,4.40
2023-01-30T23:06:02.609Z,4.30
2023-01-30T23:08:29.251Z,4.40
2023-01-30T23:10:55.876Z,4.40
2023-01-30T23:13:22.559Z,4.20
2023-01-30T23:15:49.192Z,4.40
2023-01-30T23:18:15.863Z,4.30
2023-01-30T23:20:42.537Z,4.30
2023-01-30T23:23:09.217Z,4.30
2023-01-30T23:25:35.821Z,4.10
2023-01-30T23:28:02.468Z,4.40
2023-01-30T23:30:29.099Z,4.40
2023-01-30T23:32:55.739Z,4.40
2023-01-30T23:35:22.417Z,4.30
2023-01-30T23:37:49.082Z,4.10
2023-01-30T23:40:15.986Z,4.20
2023-01-30T23:42:42.664Z,4.20
2023-01-30T23:45:09.324Z,4.20
2023-01-30T23:47:36.327Z,4.20
2023-01-30T23:50:03.571Z,4.10
2023-01-30T23:52:30.193Z,4.00
2023-01-30T23:54:56.823Z,4.10
2023-01-30T23:57:23.451Z,4.40
2023-01-30T23:59:50.091Z,4.20
